createdAt,value
2022-11-28T00:01:27.773Z,97429.63
2022-11-28T00:03:54.382Z,97425.00
2022-11-28T00:06:21.096Z,97425.72
2022-11-28T00:08:50.476Z,97430.28
2022-11-28T00:11:19.925Z,97425.00
2022-11-28T00:13:46.778Z,97415.28
2022-11-28T00:16:17.130Z,97409.78
2022-11-28T00:18:46.102Z,97417.09
2022-11-28T00:21:14.559Z,97413.19
2022-11-28T00:23:42.382Z,97412.38
2022-11-28T00:26:22.584Z,97415.56
2022-11-28T00:28:49.099Z,97407.31
2022-11-28T00:31:17.931Z,97407.19
2022-11-28T00:33:44.788Z,97402.59
2022-11-28T00:36:11.888Z,97382.16
2022-11-28T00:38:38.897Z,97390.13
2022-11-28T00:41:08.067Z,97380.00
2022-11-28T00:43:35.089Z,97380.50
2022-11-28T00:46:02.139Z,97382.59
2022-11-28T00:48:29.018Z,97377.78
2022-11-28T00:53:27.506Z,97368.16
2022-11-28T00:55:54.002Z,97362.50
2022-11-28T00:58:20.548Z,97373.31
2022-11-28T01:00:47.243Z,97367.66
2022-11-28T01:03:13.815Z,97373.41
2022-11-28T01:05:42.198Z,97371.66
2022-11-28T01:08:09.826Z,97375.16
2022-11-28T01:10:45.186Z,97367.34
2022-11-28T01:13:13.944Z,97370.53
2022-11-28T01:15:42.467Z,97374.03
2022-11-28T01:18:09.502Z,97371.75
2022-11-28T01:20:36.443Z,97362.47
2022-11-28T01:23:03.221Z,97365.47
2022-11-28T01:25:29.908Z,97369.94
2022-11-28T01:27:56.451Z,97362.66
2022-11-28T01:30:22.979Z,97371.25
2022-11-28T01:32:49.545Z,97371.94
2022-11-28T01:35:16.142Z,97371.47
2022-11-28T01:37:45.721Z,97370.81
2022-11-28T01:40:13.504Z,97365.47
2022-11-28T01:42:40.029Z,97354.38
2022-11-28T01:45:14.034Z,97357.06
2022-11-28T01:47:41.218Z,97356.78
2022-11-28T01:50:10.955Z,97340.81
2022-11-28T01:52:40.316Z,97332.75
2022-11-28T01:55:11.807Z,97318.34
2022-11-28T01:57:39.036Z,97321.22
2022-11-28T02:00:09.039Z,97319.34
2022-11-28T02:02:47.236Z,97312.34
2022-11-28T02:05:14.364Z,97294.09
2022-11-28T02:07:41.298Z,97298.03
2022-11-28T02:10:10.620Z,97304.44
2022-11-28T02:12:55.454Z,97305.19
2022-11-28T02:15:47.922Z,97299.50
2022-11-28T02:18:23.210Z,97304.50
2022-11-28T02:21:31.124Z,97307.47
2022-11-28T02:24:19.867Z,97306.47
2022-11-28T02:26:57.758Z,97307.50
2022-11-28T02:30:02.002Z,97323.25
2022-11-28T02:32:47.158Z,97314.38
2022-11-28T02:35:20.971Z,97311.03
2022-11-28T02:37:50.551Z,97299.66
2022-11-28T02:40:35.611Z,97301.59
2022-11-28T02:43:18.849Z,97302.31
2022-11-28T02:45:57.669Z,97298.50
2022-11-28T02:48:32.020Z,97289.16
2022-11-28T02:51:10.468Z,97289.75
2022-11-28T02:53:37.801Z,97285.78
2022-11-28T02:56:04.965Z,97290.19
2022-11-28T02:58:31.558Z,97291.03
2022-11-28T03:00:58.303Z,97293.00
2022-11-28T03:03:53.671Z,97285.31
2022-11-28T03:06:26.295Z,97289.22
2022-11-28T03:09:11.510Z,97296.31
2022-11-28T03:11:50.500Z,97295.47
2022-11-28T03:14:45.173Z,97300.00
2022-11-28T03:17:29.595Z,97296.31
2022-11-28T03:19:59.747Z,97296.03
2022-11-28T03:22:35.357Z,97293.59
2022-11-28T03:25:43.390Z,97294.28
2022-11-28T03:28:33.230Z,97293.13
2022-11-28T03:31:07.911Z,97294.59
2022-11-28T03:33:38.737Z,97305.31
2022-11-28T03:36:46.160Z,97298.66
2022-11-28T03:39:16.175Z,97282.97
2022-11-28T03:41:50.367Z,97289.91
2022-11-28T03:44:23.127Z,97284.19
2022-11-28T03:46:51.955Z,97275.78
2022-11-28T03:49:25.527Z,97284.94
2022-11-28T03:52:06.194Z,97274.50
2022-11-28T03:54:46.888Z,97282.66
2022-11-28T03:57:21.432Z,97272.00
2022-11-28T03:59:51.092Z,97267.06
2022-11-28T04:02:34.325Z,97263.28
2022-11-28T04:05:11.209Z,97270.34
2022-11-28T04:07:56.192Z,97263.63
2022-11-28T04:10:42.045Z,97272.19
2022-11-28T04:13:11.612Z,97270.59
2022-11-28T04:15:38.829Z,97260.28
2022-11-28T04:18:25.300Z,97266.53
2022-11-28T04:20:55.228Z,97267.25
2022-11-28T04:23:22.933Z,97268.59
2022-11-28T04:25:58.117Z,97270.19
2022-11-28T04:28:30.634Z,97262.28
2022-11-28T04:31:00.114Z,97268.94
2022-11-28T04:33:31.737Z,97269.09
2022-11-28T04:36:02.499Z,97262.72
2022-11-28T04:38:31.209Z,97267.59
2022-11-28T04:41:02.545Z,97268.16
2022-11-28T04:43:43.575Z,97269.63
2022-11-28T04:46:17.467Z,97272.28
2022-11-28T04:48:44.583Z,97272.53
2022-11-28T04:51:29.007Z,97267.72
2022-11-28T04:54:11.118Z,97274.56
2022-11-28T04:57:15.992Z,97266.41
2022-11-28T04:59:43.540Z,97265.28
2022-11-28T05:02:13.467Z,97258.97
2022-11-28T05:04:43.027Z,97258.81
2022-11-28T05:07:12.707Z,97262.44
2022-11-28T05:09:39.830Z,97254.31
2022-11-28T05:12:06.570Z,97243.44
2022-11-28T05:14:33.229Z,97241.13
2022-11-28T05:16:59.792Z,97232.34
2022-11-28T05:19:26.494Z,97226.63
2022-11-28T05:21:55.801Z,97228.09
2022-11-28T05:24:22.677Z,97227.69
2022-11-28T05:26:49.804Z,97220.16
2022-11-28T05:29:16.807Z,97222.88
2022-11-28T05:31:43.550Z,97225.59
2022-11-28T05:34:10.227Z,97227.41
2022-11-28T05:36:39.688Z,97242.50
2022-11-28T05:39:06.256Z,97246.88
2022-11-28T05:41:33.833Z,97252.34
2022-11-28T05:44:00.959Z,97250.50
2022-11-28T05:46:30.466Z,97243.53
2022-11-28T05:48:59.762Z,97246.91
2022-11-28T05:51:26.391Z,97244.00
2022-11-28T05:53:55.418Z,97235.78
2022-11-28T05:56:23.470Z,97237.72
2022-11-28T05:58:50.520Z,97232.97
2022-11-28T06:01:23.433Z,97236.03
2022-11-28T06:03:50.357Z,97239.25
2022-11-28T06:06:22.299Z,97239.03
2022-11-28T06:08:51.489Z,97235.75
2022-11-28T06:11:19.475Z,97235.34
2022-11-28T06:13:47.514Z,97233.22
2022-11-28T06:16:17.525Z,97225.03
2022-11-28T06:18:44.247Z,97228.94
2022-11-28T06:21:12.645Z,97231.59
2022-11-28T06:23:40.158Z,97228.59
2022-11-28T06:26:15.596Z,97222.31
2022-11-28T06:28:42.524Z,97212.16
2022-11-28T06:31:18.683Z,97205.03
2022-11-28T06:33:48.576Z,97210.88
2022-11-28T06:36:17.064Z,97207.53
2022-11-28T06:38:44.404Z,97207.75
2022-11-28T06:41:13.512Z,97211.53
2022-11-28T06:43:40.591Z,97211.97
2022-11-28T06:46:16.906Z,97213.22
2022-11-28T06:48:44.812Z,97215.91
2022-11-28T06:51:11.684Z,97227.59
2022-11-28T06:53:38.363Z,97224.72
2022-11-28T06:56:06.885Z,97226.75
2022-11-28T06:58:34.176Z,97222.00
2022-11-28T07:01:34.340Z,97231.63
2022-11-28T07:04:02.023Z,97235.25
2022-11-28T07:06:29.273Z,97239.25
2022-11-28T07:08:58.026Z,97244.72
2022-11-28T07:11:27.427Z,97233.13
2022-11-28T07:13:55.325Z,97227.69
2022-11-28T07:16:24.681Z,97219.38
2022-11-28T07:18:52.255Z,97215.34
2022-11-28T07:21:19.449Z,97222.53
2022-11-28T07:23:46.793Z,97213.06
2022-11-28T07:26:15.245Z,97198.69
2022-11-28T07:28:42.302Z,97209.56
2022-11-28T07:31:10.674Z,97197.19
2022-11-28T07:33:39.161Z,97206.38
2022-11-28T07:36:09.973Z,97226.84
2022-11-28T07:38:36.497Z,97235.78
2022-11-28T07:41:13.797Z,97238.97
2022-11-28T07:43:43.765Z,97236.88
2022-11-28T07:46:13.648Z,97245.78
2022-11-28T07:48:40.363Z,97239.66
2022-11-28T07:51:09.661Z,97246.13
2022-11-28T07:53:39.747Z,97243.28
2022-11-28T07:56:10.796Z,97233.91
2022-11-28T07:58:38.990Z,97236.75
2022-11-28T08:01:14.533Z,97233.31
2022-11-28T08:03:41.200Z,97230.19
2022-11-28T08:06:08.401Z,97219.81
2022-11-28T08:08:35.351Z,97227.34
2022-11-28T08:11:04.450Z,97227.56
2022-11-28T08:13:31.485Z,97225.25
2022-11-28T08:15:58.350Z,97227.69
2022-11-28T08:18:25.057Z,97225.59
2022-11-28T08:20:51.634Z,97223.78
2022-11-28T08:23:18.203Z,97235.91
2022-11-28T08:25:44.791Z,97219.25
2022-11-28T08:28:11.416Z,97221.84
2022-11-28T08:30:38.037Z,97224.84
2022-11-28T08:33:04.627Z,97238.63
2022-11-28T08:35:31.290Z,97222.41
2022-11-28T08:38:01.826Z,97225.44
2022-11-28T08:40:28.868Z,97219.59
2022-11-28T08:42:55.866Z,97213.06
2022-11-28T08:45:22.515Z,97209.44
2022-11-28T08:47:49.064Z,97206.31
2022-11-28T08:50:18.043Z,97198.56
2022-11-28T08:52:44.608Z,97193.88
2022-11-28T08:55:11.169Z,97201.06
2022-11-28T08:57:37.736Z,97207.41
2022-11-28T09:00:06.219Z,97211.06
2022-11-28T09:02:32.801Z,97193.03
2022-11-28T09:04:59.318Z,97196.06
2022-11-28T09:07:25.913Z,97196.69
2022-11-28T09:09:52.474Z,97198.56
2022-11-28T09:12:19.072Z,97199.13
2022-11-28T09:14:45.657Z,97182.25
2022-11-28T09:17:12.448Z,97188.56
2022-11-28T09:19:39.149Z,97186.06
2022-11-28T09:22:05.690Z,97194.94
2022-11-28T09:24:32.261Z,97203.22
2022-11-28T09:26:58.842Z,97194.88
2022-11-28T09:29:29.326Z,97192.72
2022-11-28T09:31:55.906Z,97191.06
2022-11-28T09:34:22.470Z,97187.25
2022-11-28T09:36:50.142Z,97190.13
2022-11-28T09:39:16.685Z,97179.25
2022-11-28T09:41:58.771Z,97181.31
2022-11-28T09:44:41.990Z,97185.19
2022-11-28T09:47:23.170Z,97176.59
2022-11-28T09:49:58.195Z,97189.41
2022-11-28T09:52:39.710Z,97175.56
2022-11-28T09:55:06.478Z,97177.09
2022-11-28T09:57:55.999Z,97176.78
2022-11-28T10:00:34.890Z,97157.75
2022-11-28T10:03:16.752Z,97168.69
2022-11-28T10:05:48.006Z,97167.22
2022-11-28T10:08:30.988Z,97161.03
2022-11-28T10:11:00.417Z,97162.22
2022-11-28T10:13:32.643Z,97162.81
2022-11-28T10:16:32.847Z,97169.03
2022-11-28T10:19:20.329Z,97186.25
2022-11-28T10:22:00.503Z,97218.59
2022-11-28T10:24:37.348Z,97196.44
2022-11-28T10:27:06.075Z,97185.25
2022-11-28T10:29:41.971Z,97183.91
2022-11-28T10:32:15.129Z,97189.78
2022-11-28T10:34:55.455Z,97188.34
2022-11-28T10:37:31.881Z,97179.56
2022-11-28T10:40:17.297Z,97190.28
2022-11-28T10:43:00.070Z,97193.13
2022-11-28T10:45:42.965Z,97176.00
2022-11-28T10:51:22.851Z,97191.03
2022-11-28T10:54:03.102Z,97187.59
2022-11-28T10:56:44.439Z,97179.25
2022-11-28T10:59:49.795Z,97177.25
2022-11-28T11:02:40.925Z,97176.09
2022-11-28T11:05:20.510Z,97177.28
2022-11-28T11:08:06.065Z,97171.44
2022-11-28T11:11:00.723Z,97192.47
2022-11-28T11:13:30.000Z,97183.75
2022-11-28T11:16:11.632Z,97183.13
2022-11-28T11:18:53.429Z,97193.22
2022-11-28T11:21:25.941Z,97180.75
2022-11-28T11:24:15.596Z,97184.44
2022-11-28T11:26:46.131Z,97182.78
2022-11-28T11:29:40.201Z,97180.19
2022-11-28T11:32:18.239Z,97175.41
2022-11-28T11:34:46.327Z,97173.34
2022-11-28T11:37:33.685Z,97180.69
2022-11-28T11:40:02.346Z,97172.91
2022-11-28T11:42:32.043Z,97163.16
2022-11-28T11:45:24.627Z,97170.34
2022-11-28T11:47:54.031Z,97170.94
2022-11-28T11:50:23.874Z,97175.50
2022-11-28T11:53:12.343Z,97171.84
2022-11-28T11:56:02.497Z,97171.56
2022-11-28T11:58:40.717Z,97175.41
2022-11-28T12:01:08.799Z,97170.56
2022-11-28T12:03:48.367Z,97166.41
2022-11-28T12:06:25.000Z,97167.56
2022-11-28T12:08:55.041Z,97160.78
2022-11-28T12:11:29.447Z,97152.19
2022-11-28T12:14:03.316Z,97158.44
2022-11-28T12:16:32.618Z,97162.72
2022-11-28T12:19:03.566Z,97167.91
2022-11-28T12:22:06.903Z,97168.56
2022-11-28T12:24:52.306Z,97171.06
2022-11-28T12:27:30.574Z,97169.09
2022-11-28T12:30:09.360Z,97168.25
2022-11-28T12:32:41.656Z,97166.25
2022-11-28T12:35:16.900Z,97164.34
2022-11-28T12:38:18.688Z,97160.88
2022-11-28T12:41:11.498Z,97159.16
2022-11-28T12:44:33.536Z,97152.22
2022-11-28T12:47:43.288Z,97157.56
2022-11-28T12:50:12.670Z,97159.06
2022-11-28T12:52:56.012Z,97158.03
2022-11-28T12:55:40.975Z,97153.00
2022-11-28T12:58:13.444Z,97164.16
2022-11-28T13:01:18.268Z,97163.84
2022-11-28T13:04:03.438Z,97163.47
2022-11-28T13:07:03.402Z,97165.53
2022-11-28T13:09:37.212Z,97171.06
2022-11-28T13:12:22.514Z,97165.47
2022-11-28T13:14:57.501Z,97164.56
2022-11-28T13:17:42.160Z,97162.81
2022-11-28T13:20:23.412Z,97155.22
2022-11-28T13:23:00.941Z,97154.88
2022-11-28T13:25:42.766Z,97155.75
2022-11-28T13:28:21.902Z,97150.66
2022-11-28T13:30:57.276Z,97144.66
2022-11-28T13:33:38.267Z,97147.47
2022-11-28T13:36:09.227Z,97146.38
2022-11-28T13:39:13.198Z,97148.56
2022-11-28T13:42:21.471Z,97144.53
2022-11-28T13:44:36.285Z,97140.53
2022-11-28T13:47:27.796Z,97139.19
2022-11-28T13:50:22.941Z,97142.03
2022-11-28T13:53:10.171Z,97136.66
2022-11-28T13:55:49.612Z,97136.00
2022-11-28T13:58:22.296Z,97138.91
2022-11-28T14:01:09.395Z,97148.03
2022-11-28T14:04:00.505Z,97145.69
2022-11-28T14:06:41.583Z,97154.38
2022-11-28T14:09:33.506Z,97156.06
2022-11-28T14:12:15.208Z,97151.22
2022-11-28T14:14:51.930Z,97158.03
2022-11-28T14:17:42.718Z,97152.47
2022-11-28T14:20:56.525Z,97158.72
2022-11-28T14:23:59.290Z,97160.41
2022-11-28T14:26:38.926Z,97155.16
2022-11-28T14:29:24.743Z,97158.16
2022-11-28T14:32:14.090Z,97156.16
2022-11-28T14:34:42.854Z,97154.41
2022-11-28T14:37:21.780Z,97156.50
2022-11-28T14:39:51.896Z,97153.56
2022-11-28T14:42:58.182Z,97152.72
2022-11-28T14:45:33.264Z,97157.47
2022-11-28T14:48:36.842Z,97156.97
2022-11-28T14:51:03.409Z,97155.00
2022-11-28T14:53:36.246Z,97150.66
2022-11-28T14:56:29.175Z,97154.56
2022-11-28T14:58:58.796Z,97150.91
2022-11-28T15:01:49.974Z,97152.41
2022-11-28T15:04:38.321Z,97153.06
2022-11-28T15:07:12.529Z,97153.00
2022-11-28T15:09:47.834Z,97155.00
2022-11-28T15:12:37.453Z,97157.09
2022-11-28T15:15:07.921Z,97143.59
2022-11-28T15:17:35.002Z,97152.00
2022-11-28T15:20:17.239Z,97142.16
2022-11-28T15:22:46.650Z,97150.56
2022-11-28T15:25:25.028Z,97150.50
2022-11-28T15:27:51.799Z,97147.84
2022-11-28T15:30:23.609Z,97147.41
2022-11-28T15:32:54.018Z,97151.41
2022-11-28T15:35:23.063Z,97149.16
2022-11-28T15:37:52.918Z,97146.91
2022-11-28T15:40:26.384Z,97145.22
2022-11-28T15:42:52.998Z,97148.88
2022-11-28T15:45:28.771Z,97142.50
2022-11-28T15:47:57.041Z,97142.75
2022-11-28T15:50:29.375Z,97139.56
2022-11-28T15:52:58.154Z,97135.75
2022-11-28T15:55:27.343Z,97138.03
2022-11-28T15:58:17.975Z,97137.06
2022-11-28T16:00:50.526Z,97141.56
2022-11-28T16:03:22.681Z,97145.47
2022-11-28T16:05:56.583Z,97143.63
2022-11-28T16:08:30.583Z,97145.53
2022-11-28T16:11:04.971Z,97145.41
2022-11-28T16:13:33.225Z,97144.22
2022-11-28T16:16:04.289Z,97148.38
2022-11-28T16:18:34.006Z,97146.72
2022-11-28T16:21:02.205Z,97144.72
2022-11-28T16:23:34.906Z,97147.22
2022-11-28T16:26:23.542Z,97143.00
2022-11-28T16:29:08.074Z,97139.31
2022-11-28T16:31:38.282Z,97134.56
2022-11-28T16:34:05.993Z,97135.81
2022-11-28T16:36:37.379Z,97134.06
2022-11-28T16:39:17.938Z,97137.53
2022-11-28T16:42:05.563Z,97137.47
2022-11-28T16:44:33.600Z,97135.19
2022-11-28T16:47:00.830Z,97136.13
2022-11-28T16:49:35.865Z,97136.13
2022-11-28T16:52:21.239Z,97123.97
2022-11-28T16:54:48.916Z,97135.72
2022-11-28T16:57:15.865Z,97126.13
2022-11-28T16:59:44.344Z,97124.13
2022-11-28T17:02:22.831Z,97125.03
2022-11-28T17:04:52.041Z,97120.03
2022-11-28T17:07:21.191Z,97129.88
2022-11-28T17:09:50.833Z,97132.97
2022-11-28T17:12:23.327Z,97123.03
2022-11-28T17:14:52.207Z,97123.84
2022-11-28T17:17:20.119Z,97120.28
2022-11-28T17:19:49.103Z,97122.78
2022-11-28T17:22:19.675Z,97120.50
2022-11-28T17:24:47.775Z,97128.38
2022-11-28T17:27:16.833Z,97124.28
2022-11-28T17:29:43.874Z,97128.63
2022-11-28T17:32:12.372Z,97136.22
2022-11-28T17:34:39.021Z,97128.84
2022-11-28T17:37:05.865Z,97125.53
2022-11-28T17:39:32.933Z,97127.56
2022-11-28T17:41:59.557Z,97129.25
2022-11-28T17:44:31.681Z,97127.81
2022-11-28T17:47:00.500Z,97119.50
2022-11-28T17:49:33.359Z,97121.28
2022-11-28T17:52:02.478Z,97128.81
2022-11-28T17:54:31.275Z,97127.06
2022-11-28T17:56:57.971Z,97134.47
2022-11-28T17:59:24.710Z,97130.34
2022-11-28T18:01:51.538Z,97132.84
2022-11-28T18:04:18.152Z,97138.31
2022-11-28T18:06:46.452Z,97127.47
2022-11-28T18:09:14.454Z,97136.28
2022-11-28T18:11:42.530Z,97130.91
2022-11-28T18:14:11.857Z,97131.66
2022-11-28T18:16:40.261Z,97128.81
2022-11-28T18:19:07.034Z,97125.94
2022-11-28T18:21:33.812Z,97129.50
2022-11-28T18:24:00.301Z,97135.06
2022-11-28T18:26:27.117Z,97122.47
2022-11-28T18:28:54.275Z,97116.16
2022-11-28T18:31:24.484Z,97123.72
2022-11-28T18:33:51.785Z,97129.66
2022-11-28T18:36:24.398Z,97122.00
2022-11-28T18:38:55.183Z,97117.09
2022-11-28T18:41:22.104Z,97114.63
2022-11-28T18:43:48.721Z,97111.19
2022-11-28T18:46:21.273Z,97111.75
2022-11-28T18:48:48.459Z,97111.25
2022-11-28T18:51:19.827Z,97116.91
2022-11-28T18:53:49.584Z,97106.41
2022-11-28T18:56:17.144Z,97113.25
2022-11-28T18:58:47.891Z,97108.47
2022-11-28T19:01:16.325Z,97108.34
2022-11-28T19:03:43.851Z,97116.47
2022-11-28T19:06:12.116Z,97113.50
2022-11-28T19:08:41.467Z,97108.03
2022-11-28T19:11:10.110Z,97107.47
2022-11-28T19:13:39.689Z,97092.75
2022-11-28T19:16:07.842Z,97108.03
2022-11-28T19:18:36.294Z,97102.00
2022-11-28T19:21:11.795Z,97106.34
2022-11-28T19:23:38.721Z,97102.31
2022-11-28T19:26:08.496Z,97097.84
2022-11-28T19:28:36.421Z,97098.84
2022-11-28T19:31:22.689Z,97098.28
2022-11-28T19:34:00.411Z,97095.31
2022-11-28T19:36:31.328Z,97089.94
2022-11-28T19:38:59.034Z,97095.69
2022-11-28T19:41:25.831Z,97096.50
2022-11-28T19:43:56.935Z,97103.44
2022-11-28T19:46:24.119Z,97096.06
2022-11-28T19:48:51.816Z,97099.34
2022-11-28T19:51:19.442Z,97102.75
2022-11-28T19:53:48.504Z,97101.16
2022-11-28T19:56:22.620Z,97104.25
2022-11-28T19:58:49.621Z,97107.84
2022-11-28T20:01:17.457Z,97115.03
2022-11-28T20:03:47.651Z,97112.09
2022-11-28T20:06:22.463Z,97120.59
2022-11-28T20:08:50.431Z,97118.69
2022-11-28T20:11:23.139Z,97118.38
2022-11-28T20:13:59.619Z,97115.19
2022-11-28T20:16:30.083Z,97119.19
2022-11-28T20:18:56.860Z,97115.53
2022-11-28T20:21:25.903Z,97121.59
2022-11-28T20:23:55.199Z,97116.84
2022-11-28T20:26:24.410Z,97119.09
2022-11-28T20:28:50.893Z,97122.59
2022-11-28T20:31:21.956Z,97133.44
2022-11-28T20:33:49.564Z,97123.34
2022-11-28T20:36:18.481Z,97127.44
2022-11-28T20:38:45.710Z,97123.91
2022-11-28T20:41:13.772Z,97132.75
2022-11-28T20:43:40.920Z,97130.09
2022-11-28T20:46:10.321Z,97133.34
2022-11-28T20:48:37.491Z,97132.53
2022-11-28T20:51:08.882Z,97133.69
2022-11-28T20:53:37.406Z,97131.34
2022-11-28T20:56:07.157Z,97136.13
2022-11-28T20:58:34.054Z,97137.03
2022-11-28T21:01:03.506Z,97135.53
2022-11-28T21:03:30.047Z,97134.63
2022-11-28T21:06:01.005Z,97139.03
2022-11-28T21:08:30.393Z,97140.63
2022-11-28T21:10:57.473Z,97136.75
2022-11-28T21:13:26.219Z,97139.03
2022-11-28T21:15:58.469Z,97133.28
2022-11-28T21:18:24.943Z,97131.53
2022-11-28T21:20:53.909Z,97141.34
2022-11-28T21:23:20.494Z,97126.19
2022-11-28T21:25:46.953Z,97135.25
2022-11-28T21:28:13.476Z,97134.66
2022-11-28T21:30:46.384Z,97133.00
2022-11-28T21:33:13.172Z,97134.59
2022-11-28T21:35:40.338Z,97141.34
2022-11-28T21:38:07.686Z,97140.16
2022-11-28T21:40:34.260Z,97141.09
2022-11-28T21:43:00.847Z,97135.00
2022-11-28T21:45:27.657Z,97136.75
2022-11-28T21:47:54.209Z,97138.66
2022-11-28T21:50:20.750Z,97139.34
2022-11-28T21:52:47.225Z,97137.25
2022-11-28T21:55:13.711Z,97137.97
2022-11-28T21:57:42.689Z,97136.97
2022-11-28T22:00:20.714Z,97133.19
2022-11-28T22:03:02.852Z,97143.28
2022-11-28T22:05:34.658Z,97139.72
2022-11-28T22:08:01.465Z,97139.19
2022-11-28T22:10:28.132Z,97131.59
2022-11-28T22:12:54.685Z,97133.88
2022-11-28T22:15:22.157Z,97144.69
2022-11-28T22:17:48.603Z,97132.53
2022-11-28T22:20:15.122Z,97140.09
2022-11-28T22:22:41.608Z,97145.50
2022-11-28T22:25:08.300Z,97136.13
2022-11-28T22:27:35.567Z,97141.19
2022-11-28T22:30:02.119Z,97142.50
2022-11-28T22:32:30.917Z,97130.34
2022-11-28T22:34:57.467Z,97136.09
2022-11-28T22:37:23.942Z,97137.25
2022-11-28T22:39:50.432Z,97139.84
2022-11-28T22:42:16.937Z,97143.31
2022-11-28T22:44:43.670Z,97143.00
2022-11-28T22:47:10.330Z,97135.75
2022-11-28T22:49:36.777Z,97140.84
2022-11-28T22:52:03.348Z,97138.63
2022-11-28T22:54:29.783Z,97135.50
2022-11-28T22:56:56.325Z,97139.47
2022-11-28T22:59:23.030Z,97133.59
2022-11-28T23:01:49.719Z,97138.09
2022-11-28T23:04:16.277Z,97137.56
2022-11-28T23:06:42.835Z,97133.66
2022-11-28T23:09:10.552Z,97139.63
2022-11-28T23:11:41.019Z,97133.72
2022-11-28T23:14:10.220Z,97128.38
2022-11-28T23:16:41.699Z,97132.72
2022-11-28T23:19:13.320Z,97139.47
2022-11-28T23:21:42.170Z,97134.53
2022-11-28T23:24:15.497Z,97128.63
2022-11-28T23:26:41.959Z,97130.00
2022-11-28T23:29:09.088Z,97119.31
2022-11-28T23:31:38.983Z,97120.03
2022-11-28T23:34:06.345Z,97130.00
2022-11-28T23:36:41.506Z,97128.94
2022-11-28T23:39:18.329Z,97125.13
2022-11-28T23:41:45.766Z,97120.44
2022-11-28T23:44:13.559Z,97121.28
2022-11-28T23:46:43.049Z,97127.88
2022-11-28T23:49:09.966Z,97125.91
2022-11-28T23:51:37.545Z,97126.72
2022-11-28T23:54:07.745Z,97125.44
2022-11-28T23:56:35.534Z,97132.88
2022-11-28T23:59:04.415Z,97131.06
